createdAt,value
2019-06-15T00:01:09.193Z,23.49
2019-06-15T00:03:38.719Z,23.65
2019-06-15T00:06:08.467Z,23.75
2019-06-15T00:08:38.227Z,23.80
2019-06-15T00:11:07.992Z,23.89
2019-06-15T00:13:37.565Z,23.76
2019-06-15T00:16:06.976Z,23.82
2019-06-15T00:18:36.855Z,23.86
2019-06-15T00:21:06.514Z,23.84
2019-06-15T00:23:36.215Z,23.78
2019-06-15T00:26:06.118Z,23.75
2019-06-15T00:28:35.634Z,23.70
2019-06-15T00:31:05.487Z,23.64
2019-06-15T00:33:35.082Z,23.65
2019-06-15T00:36:04.974Z,23.70
2019-06-15T00:38:34.654Z,23.78
2019-06-15T00:41:04.381Z,23.81
2019-06-15T00:43:33.893Z,23.77
2019-06-15T00:46:03.596Z,23.83
2019-06-15T00:48:33.170Z,23.80
2019-06-15T00:51:02.886Z,23.73
2019-06-15T00:53:32.470Z,23.76
2019-06-15T00:56:02.232Z,23.82
2019-06-15T00:58:32.055Z,23.72
2019-06-15T01:01:01.477Z,23.66
2019-06-15T01:03:30.961Z,23.58
2019-06-15T01:06:00.406Z,23.48
2019-06-15T01:08:30.293Z,23.35
2019-06-15T01:11:00.152Z,23.27
2019-06-15T01:13:29.742Z,23.29
2019-06-15T01:15:59.259Z,23.25
2019-06-15T01:18:29.029Z,23.24
2019-06-15T01:20:58.882Z,23.35
2019-06-15T01:23:28.585Z,23.58
2019-06-15T01:25:58.201Z,23.76
2019-06-15T01:28:27.945Z,23.87
2019-06-15T01:30:57.821Z,24.00
2019-06-15T01:33:27.561Z,24.10
2019-06-15T01:35:56.973Z,24.15
2019-06-15T01:38:26.860Z,24.26
2019-06-15T01:40:56.822Z,24.27
2019-06-15T01:43:26.364Z,24.29
2019-06-15T01:45:56.079Z,24.23
2019-06-15T01:48:25.780Z,24.28
2019-06-15T01:50:55.587Z,24.32
2019-06-15T01:53:25.253Z,24.35
2019-06-15T01:55:55.012Z,24.29
2019-06-15T01:58:25.784Z,24.25
2019-06-15T02:00:55.762Z,24.23
2019-06-15T02:03:25.546Z,24.24
2019-06-15T02:05:55.381Z,24.24
2019-06-15T02:08:25.127Z,24.25
2019-06-15T02:10:54.755Z,24.31
2019-06-15T02:13:24.782Z,24.29
2019-06-15T02:15:54.541Z,24.34
2019-06-15T02:18:23.926Z,24.31
2019-06-15T02:20:53.346Z,24.31
2019-06-15T02:23:22.938Z,24.30
2019-06-15T02:25:52.791Z,24.32
2019-06-15T02:28:22.608Z,24.34
2019-06-15T02:30:52.366Z,24.34
2019-06-15T02:33:22.379Z,24.40
2019-06-15T02:35:52.160Z,24.34
2019-06-15T02:38:21.770Z,24.37
2019-06-15T02:40:51.626Z,24.33
2019-06-15T02:43:21.046Z,24.32
2019-06-15T02:45:50.616Z,24.30
2019-06-15T02:48:20.347Z,24.24
2019-06-15T02:50:50.244Z,24.22
2019-06-15T02:53:19.943Z,24.17
2019-06-15T02:55:50.943Z,24.17
2019-06-15T02:58:20.751Z,24.15
2019-06-15T03:01:02.913Z,24.18
2019-06-15T03:03:33.020Z,24.19
2019-06-15T03:06:03.031Z,24.18
2019-06-15T03:08:33.251Z,24.13
2019-06-15T03:11:03.446Z,24.14
2019-06-15T03:13:35.106Z,24.15
2019-06-15T03:16:05.673Z,24.17
2019-06-15T03:18:35.611Z,24.13
2019-06-15T03:21:05.445Z,24.11
2019-06-15T03:23:35.243Z,24.11
2019-06-15T03:26:06.120Z,24.08
2019-06-15T03:28:35.939Z,24.04
2019-06-15T03:31:05.371Z,24.05
2019-06-15T03:33:35.212Z,24.11
2019-06-15T03:36:05.202Z,24.13
2019-06-15T03:38:34.871Z,24.15
2019-06-15T03:41:04.699Z,24.17
2019-06-15T03:43:34.474Z,24.18
2019-06-15T03:46:04.044Z,24.21
2019-06-15T03:48:33.599Z,24.20
2019-06-15T03:51:03.437Z,24.26
2019-06-15T03:53:32.966Z,24.29
2019-06-15T03:56:02.447Z,24.34
2019-06-15T03:58:32.128Z,24.43
2019-06-15T04:01:11.757Z,24.47
2019-06-15T04:03:41.545Z,24.54
2019-06-15T04:06:11.364Z,24.61
2019-06-15T04:08:41.001Z,24.75
2019-06-15T04:11:10.832Z,24.83
2019-06-15T04:13:40.581Z,24.89
2019-06-15T04:16:10.380Z,24.92
2019-06-15T04:18:39.779Z,24.95
2019-06-15T04:21:09.506Z,24.96
2019-06-15T04:23:39.089Z,24.98
2019-06-15T04:26:08.777Z,24.97
2019-06-15T04:28:38.541Z,25.00
2019-06-15T04:31:08.287Z,25.07
2019-06-15T04:33:38.018Z,25.08
2019-06-15T04:36:07.599Z,25.13
2019-06-15T04:38:37.100Z,25.21
2019-06-15T04:41:06.607Z,25.29
2019-06-15T04:43:36.191Z,25.33
2019-06-15T04:46:06.018Z,25.37
2019-06-15T04:48:35.514Z,25.38
2019-06-15T04:51:05.142Z,25.42
2019-06-15T04:53:34.931Z,25.46
2019-06-15T04:56:04.958Z,25.52
2019-06-15T04:58:34.735Z,25.54
2019-06-15T05:01:04.803Z,25.56
2019-06-15T05:03:34.445Z,25.60
2019-06-15T05:06:04.297Z,25.64
2019-06-15T05:08:33.734Z,25.70
2019-06-15T05:11:03.803Z,25.79
2019-06-15T05:13:33.560Z,25.87
2019-06-15T05:16:03.061Z,25.96
2019-06-15T05:18:32.650Z,25.99
2019-06-15T05:21:02.404Z,26.00
2019-06-15T05:23:31.907Z,26.05
2019-06-15T05:26:01.665Z,26.05
2019-06-15T05:28:31.375Z,26.04
2019-06-15T05:31:00.797Z,26.08
2019-06-15T05:33:30.680Z,26.21
2019-06-15T05:36:00.404Z,26.32
2019-06-15T05:38:30.108Z,26.55
2019-06-15T05:40:59.828Z,26.72
2019-06-15T05:43:29.531Z,26.84
2019-06-15T05:45:58.956Z,26.81
2019-06-15T05:48:28.471Z,26.89
2019-06-15T05:50:58.772Z,26.94
2019-06-15T05:53:28.473Z,26.92
2019-06-15T05:55:58.231Z,27.00
2019-06-15T05:58:28.018Z,27.01
2019-06-15T06:00:57.510Z,27.04
2019-06-15T06:03:27.191Z,27.08
2019-06-15T06:05:56.619Z,27.18
2019-06-15T06:08:26.405Z,27.19
2019-06-15T06:10:55.890Z,27.27
2019-06-15T06:13:25.293Z,27.33
2019-06-15T06:15:54.962Z,27.44
2019-06-15T06:18:24.793Z,27.50
2019-06-15T06:20:54.476Z,27.57
2019-06-15T06:23:23.904Z,27.63
2019-06-15T06:25:53.417Z,27.72
2019-06-15T06:28:22.968Z,27.77
2019-06-15T06:30:52.382Z,27.79
2019-06-15T06:33:21.919Z,27.75
2019-06-15T06:35:51.597Z,27.65
2019-06-15T06:38:21.008Z,27.74
2019-06-15T06:40:50.727Z,27.72
2019-06-15T06:43:20.682Z,27.59
2019-06-15T06:45:50.507Z,27.55
2019-06-15T06:48:20.102Z,27.59
2019-06-15T06:50:49.994Z,27.61
2019-06-15T06:53:19.532Z,27.61
2019-06-15T06:55:49.237Z,27.67
2019-06-15T06:58:18.652Z,27.71
2019-06-15T07:00:48.440Z,27.74
2019-06-15T07:03:19.177Z,27.85
2019-06-15T07:05:48.738Z,27.86
2019-06-15T07:08:18.668Z,27.98
2019-06-15T07:10:48.443Z,28.16
2019-06-15T07:13:18.113Z,28.24
2019-06-15T07:15:47.845Z,28.29
2019-06-15T07:18:18.529Z,28.38
2019-06-15T07:20:48.373Z,28.49
2019-06-15T07:23:18.090Z,28.57
2019-06-15T07:25:47.913Z,28.60
2019-06-15T07:28:17.555Z,28.65
2019-06-15T07:30:47.239Z,28.63
2019-06-15T07:33:16.900Z,28.69
2019-06-15T07:35:46.822Z,28.64
2019-06-15T07:38:16.550Z,28.69
2019-06-15T07:40:46.342Z,28.82
2019-06-15T07:43:16.172Z,28.85
2019-06-15T07:45:45.894Z,28.80
2019-06-15T07:48:15.682Z,28.63
2019-06-15T07:50:45.108Z,28.63
2019-06-15T07:53:14.969Z,28.71
2019-06-15T07:55:44.853Z,28.87
2019-06-15T07:58:24.021Z,28.98
2019-06-15T08:00:46.087Z,29.02
2019-06-15T08:03:15.835Z,29.13
2019-06-15T08:05:45.653Z,29.32
2019-06-15T08:08:15.386Z,29.52
2019-06-15T08:10:45.145Z,29.78
2019-06-15T08:13:15.037Z,29.98
2019-06-15T08:15:44.660Z,30.07
2019-06-15T08:18:14.059Z,30.06
2019-06-15T08:20:43.744Z,30.09
2019-06-15T08:23:13.229Z,30.09
2019-06-15T08:25:43.063Z,30.12
2019-06-15T08:28:12.861Z,30.19
2019-06-15T08:30:43.194Z,30.29
2019-06-15T08:33:13.182Z,30.34
2019-06-15T08:35:42.607Z,30.42
2019-06-15T08:38:12.275Z,30.60
2019-06-15T08:40:41.974Z,30.76
2019-06-15T08:43:11.411Z,30.94
2019-06-15T08:45:41.237Z,31.03
2019-06-15T08:48:11.291Z,31.12
2019-06-15T08:50:41.285Z,31.11
2019-06-15T08:53:10.975Z,30.80
2019-06-15T08:55:40.653Z,30.82
2019-06-15T08:58:10.457Z,30.87
2019-06-15T09:00:40.036Z,31.00
2019-06-15T09:03:10.102Z,31.22
2019-06-15T09:05:39.525Z,31.27
2019-06-15T09:08:09.361Z,31.31
2019-06-15T09:10:39.142Z,31.29
2019-06-15T09:13:08.940Z,31.05
2019-06-15T09:15:52.245Z,31.06
2019-06-15T09:18:22.020Z,31.15
2019-06-15T09:20:52.181Z,31.29
2019-06-15T09:23:21.904Z,31.52
2019-06-15T09:25:51.316Z,31.53
2019-06-15T09:28:21.151Z,31.50
2019-06-15T09:30:51.142Z,31.65
2019-06-15T09:33:20.943Z,31.88
2019-06-15T09:35:50.381Z,32.06
2019-06-15T09:38:19.925Z,32.23
2019-06-15T09:40:49.534Z,32.47
2019-06-15T09:43:19.436Z,32.68
2019-06-15T09:45:48.936Z,32.89
2019-06-15T09:48:18.579Z,33.31
2019-06-15T09:50:48.335Z,33.77
2019-06-15T09:53:18.065Z,33.59
2019-06-15T09:55:47.583Z,33.95
2019-06-15T09:58:16.982Z,34.66
2019-06-15T10:00:46.419Z,35.30
2019-06-15T10:03:16.092Z,35.83
2019-06-15T10:05:45.925Z,36.42
2019-06-15T10:08:15.325Z,37.43
2019-06-15T10:10:44.739Z,38.48
2019-06-15T10:13:14.507Z,39.49
2019-06-15T10:15:44.093Z,40.45
2019-06-15T10:18:13.651Z,41.32
2019-06-15T10:20:43.413Z,42.31
2019-06-15T10:23:13.280Z,43.10
2019-06-15T10:25:43.158Z,43.44
2019-06-15T10:28:12.925Z,43.20
2019-06-15T10:30:42.571Z,43.61
2019-06-15T10:33:12.312Z,43.67
2019-06-15T10:35:42.242Z,44.27
2019-06-15T10:38:11.809Z,45.18
2019-06-15T10:40:41.295Z,45.70
2019-06-15T10:43:10.962Z,46.38
2019-06-15T10:45:40.562Z,47.11
2019-06-15T10:48:10.366Z,47.65
2019-06-15T10:50:40.098Z,47.91
2019-06-15T10:53:09.776Z,48.11
2019-06-15T10:55:39.515Z,47.94
2019-06-15T10:58:09.317Z,48.25
2019-06-15T11:00:39.038Z,48.62
2019-06-15T11:03:08.614Z,48.66
2019-06-15T11:05:39.060Z,48.23
2019-06-15T11:08:08.462Z,47.84
2019-06-15T11:10:44.940Z,47.82
2019-06-15T11:13:14.984Z,47.46
2019-06-15T11:15:44.672Z,47.30
2019-06-15T11:18:14.442Z,47.23
2019-06-15T11:20:44.186Z,47.07
2019-06-15T11:23:13.853Z,46.30
2019-06-15T11:25:43.577Z,45.66
2019-06-15T11:28:13.277Z,45.66
2019-06-15T11:30:43.061Z,46.83
2019-06-15T11:33:12.644Z,47.75
2019-06-15T11:35:43.146Z,48.01
2019-06-15T11:38:12.710Z,47.44
2019-06-15T11:40:43.027Z,46.54
2019-06-15T11:43:12.518Z,46.74
2019-06-15T11:45:42.266Z,46.66
2019-06-15T11:48:12.145Z,47.02
2019-06-15T11:50:41.811Z,46.73
2019-06-15T11:53:11.590Z,46.51
2019-06-15T11:55:41.012Z,46.29
2019-06-15T11:58:10.865Z,45.18
2019-06-15T12:00:41.851Z,44.74
2019-06-15T12:03:11.648Z,45.49
2019-06-15T12:05:41.408Z,45.99
2019-06-15T12:08:11.135Z,46.17
2019-06-15T12:10:40.821Z,45.93
2019-06-15T12:13:10.591Z,45.79
2019-06-15T12:15:40.261Z,45.20
2019-06-15T12:18:10.177Z,45.36
2019-06-15T12:20:40.026Z,44.95
2019-06-15T12:23:09.863Z,45.08
2019-06-15T12:25:39.578Z,44.78
2019-06-15T12:28:09.357Z,44.70
2019-06-15T12:30:46.854Z,45.37
2019-06-15T12:33:11.438Z,45.19
2019-06-15T12:35:41.245Z,44.52
2019-06-15T12:38:10.753Z,45.45
2019-06-15T12:40:40.526Z,46.09
2019-06-15T12:43:10.296Z,45.49
2019-06-15T12:45:39.893Z,45.27
2019-06-15T12:48:09.480Z,45.97
2019-06-15T12:50:39.335Z,46.47
2019-06-15T12:53:09.270Z,46.39
2019-06-15T12:55:39.265Z,46.39
2019-06-15T12:58:08.910Z,46.41
2019-06-15T13:00:39.082Z,46.61
2019-06-15T13:03:08.873Z,46.98
2019-06-15T13:05:38.580Z,45.96
2019-06-15T13:08:08.439Z,45.02
2019-06-15T13:10:38.809Z,44.31
2019-06-15T13:13:08.718Z,43.74
2019-06-15T13:15:38.147Z,43.53
2019-06-15T13:18:07.866Z,42.85
2019-06-15T13:20:37.645Z,42.49
2019-06-15T13:23:07.389Z,42.05
2019-06-15T13:25:37.077Z,41.96
2019-06-15T13:28:07.043Z,42.15
2019-06-15T13:30:36.796Z,42.99
2019-06-15T13:33:06.493Z,43.29
2019-06-15T13:35:36.303Z,43.79
2019-06-15T13:38:06.071Z,43.43
2019-06-15T13:40:35.787Z,42.62
2019-06-15T13:43:05.217Z,42.51
2019-06-15T13:45:34.945Z,42.10
2019-06-15T13:48:04.736Z,42.24
2019-06-15T13:50:34.625Z,42.42
2019-06-15T13:53:04.137Z,42.62
2019-06-15T13:55:33.907Z,42.21
2019-06-15T13:58:03.685Z,41.74
2019-06-15T14:00:33.495Z,41.53
2019-06-15T14:03:03.083Z,41.35
2019-06-15T14:05:32.908Z,40.86
2019-06-15T14:08:02.314Z,40.07
2019-06-15T14:10:32.044Z,39.38
2019-06-15T14:13:01.822Z,38.77
2019-06-15T14:15:31.542Z,38.11
2019-06-15T14:18:00.953Z,37.73
2019-06-15T14:20:30.376Z,37.36
2019-06-15T14:23:00.211Z,37.02
2019-06-15T14:25:29.706Z,36.73
2019-06-15T14:27:59.174Z,36.11
2019-06-15T14:30:28.949Z,35.80
2019-06-15T14:32:58.498Z,35.59
2019-06-15T14:35:28.109Z,35.53
2019-06-15T14:37:57.531Z,35.41
2019-06-15T14:40:27.260Z,35.15
2019-06-15T14:42:57.027Z,34.76
2019-06-15T14:45:27.128Z,34.61
2019-06-15T14:47:56.914Z,34.47
2019-06-15T14:50:26.284Z,34.39
2019-06-15T14:52:55.983Z,34.17
2019-06-15T14:55:26.299Z,34.02
2019-06-15T14:57:56.563Z,33.86
2019-06-15T15:00:26.413Z,33.81
2019-06-15T15:02:56.304Z,33.86
2019-06-15T15:05:27.371Z,33.90
2019-06-15T15:07:57.417Z,33.85
2019-06-15T15:10:27.169Z,33.77
2019-06-15T15:12:56.992Z,33.64
2019-06-15T15:15:26.402Z,33.63
2019-06-15T15:17:57.722Z,33.55
2019-06-15T15:20:27.446Z,33.37
2019-06-15T15:22:57.288Z,33.15
2019-06-15T15:25:26.716Z,32.98
2019-06-15T15:27:57.193Z,32.86
2019-06-15T15:30:36.212Z,32.74
2019-06-15T15:33:06.776Z,32.62
2019-06-15T15:35:37.326Z,32.59
2019-06-15T15:38:09.287Z,32.48
2019-06-15T15:40:39.176Z,32.33
2019-06-15T15:43:08.588Z,32.26
2019-06-15T15:45:38.449Z,32.09
2019-06-15T15:48:08.052Z,32.14
2019-06-15T15:50:37.833Z,32.19
2019-06-15T15:53:07.808Z,32.27
2019-06-15T15:55:37.543Z,32.22
2019-06-15T15:58:06.965Z,32.19
2019-06-15T16:00:37.025Z,32.06
2019-06-15T16:03:07.386Z,32.15
2019-06-15T16:05:37.489Z,32.16
2019-06-15T16:08:07.086Z,32.10
2019-06-15T16:10:37.266Z,32.05
2019-06-15T16:13:07.214Z,31.87
2019-06-15T16:15:37.435Z,31.99
2019-06-15T16:18:07.098Z,31.86
2019-06-15T16:20:37.344Z,31.84
2019-06-15T16:23:07.668Z,31.77
2019-06-15T16:25:37.781Z,31.70
2019-06-15T16:28:07.484Z,31.74
2019-06-15T16:31:00.425Z,31.65
2019-06-15T16:33:08.349Z,31.69
2019-06-15T16:35:38.171Z,31.55
2019-06-15T16:38:07.819Z,31.48
2019-06-15T16:40:38.896Z,31.52
2019-06-15T16:43:09.412Z,31.32
2019-06-15T16:45:39.420Z,31.32
2019-06-15T16:48:09.510Z,31.35
2019-06-15T16:50:39.410Z,31.29
2019-06-15T16:53:08.815Z,31.22
2019-06-15T16:55:38.652Z,31.16
2019-06-15T16:58:08.311Z,31.21
2019-06-15T17:00:38.007Z,31.10
2019-06-15T17:03:20.921Z,30.94
2019-06-15T17:05:39.158Z,30.95
2019-06-15T17:08:08.903Z,30.91
2019-06-15T17:10:40.240Z,30.79
2019-06-15T17:13:10.184Z,30.67
2019-06-15T17:15:40.150Z,30.63
2019-06-15T17:18:09.743Z,30.47
2019-06-15T17:20:49.921Z,30.36
2019-06-15T17:23:19.881Z,30.28
2019-06-15T17:25:50.236Z,30.06
2019-06-15T17:28:19.748Z,29.93
2019-06-15T17:30:49.970Z,29.93
2019-06-15T17:33:33.432Z,29.83
2019-06-15T17:35:58.744Z,29.74
2019-06-15T17:38:22.492Z,29.74
2019-06-15T17:40:52.246Z,29.66
2019-06-15T17:43:21.769Z,29.58
2019-06-15T17:45:51.398Z,29.53
2019-06-15T17:48:21.027Z,29.46
2019-06-15T17:50:50.725Z,29.40
2019-06-15T17:53:20.411Z,29.28
2019-06-15T17:55:50.249Z,29.28
2019-06-15T17:58:19.758Z,29.22
2019-06-15T18:00:50.183Z,29.23
2019-06-15T18:03:19.857Z,29.07
2019-06-15T18:05:49.740Z,28.98
2019-06-15T18:08:19.746Z,28.93
2019-06-15T18:10:49.429Z,28.87
2019-06-15T18:13:19.310Z,28.86
2019-06-15T18:15:49.084Z,28.81
2019-06-15T18:18:19.021Z,28.75
2019-06-15T18:20:48.508Z,28.69
2019-06-15T18:23:18.268Z,28.61
2019-06-15T18:25:47.773Z,28.64
2019-06-15T18:28:18.001Z,28.56
2019-06-15T18:30:47.841Z,28.62
2019-06-15T18:33:17.564Z,28.61
2019-06-15T18:35:47.887Z,28.58
2019-06-15T18:38:17.459Z,28.52
2019-06-15T18:40:47.401Z,28.40
2019-06-15T18:43:17.163Z,28.46
2019-06-15T18:45:47.522Z,28.45
2019-06-15T18:48:17.374Z,28.42
2019-06-15T18:50:47.230Z,28.41
2019-06-15T18:53:17.067Z,28.41
2019-06-15T18:55:47.472Z,28.46
2019-06-15T18:58:17.725Z,28.47
2019-06-15T19:00:47.495Z,28.46
2019-06-15T19:03:17.150Z,28.43
2019-06-15T19:05:47.291Z,28.46
2019-06-15T19:08:17.344Z,28.26
2019-06-15T19:10:47.104Z,28.31
2019-06-15T19:13:16.858Z,28.28
2019-06-15T19:15:47.067Z,28.24
2019-06-15T19:18:17.839Z,28.19
2019-06-15T19:20:47.752Z,28.13
2019-06-15T19:23:17.195Z,28.19
2019-06-15T19:25:47.299Z,28.13
2019-06-15T19:28:17.047Z,28.14
2019-06-15T19:30:47.452Z,28.12
2019-06-15T19:33:17.055Z,28.08
2019-06-15T19:35:46.752Z,28.09
2019-06-15T19:38:16.673Z,28.16
2019-06-15T19:40:46.639Z,28.13
2019-06-15T19:43:16.531Z,28.17
2019-06-15T19:45:46.147Z,28.21
2019-06-15T19:48:17.172Z,28.11
2019-06-15T19:50:47.174Z,28.13
2019-06-15T19:53:17.413Z,28.10
2019-06-15T19:55:47.544Z,28.06
2019-06-15T19:58:17.335Z,28.01
2019-06-15T20:00:47.180Z,28.00
2019-06-15T20:03:17.057Z,27.94
2019-06-15T20:05:47.054Z,27.97
2019-06-15T20:08:17.700Z,27.96
2019-06-15T20:10:47.713Z,27.91
2019-06-15T20:13:17.098Z,27.88
2019-06-15T20:15:47.268Z,27.93
2019-06-15T20:18:17.902Z,27.96
2019-06-15T20:20:47.600Z,27.98
2019-06-15T20:23:17.468Z,28.01
2019-06-15T20:25:47.353Z,28.08
2019-06-15T20:28:17.091Z,28.13
2019-06-15T20:30:47.047Z,28.04
2019-06-15T20:33:16.886Z,27.99
2019-06-15T20:35:47.482Z,27.91
2019-06-15T20:38:17.257Z,27.91
2019-06-15T20:40:47.702Z,27.91
2019-06-15T20:43:17.654Z,27.92
2019-06-15T20:45:47.843Z,27.81
2019-06-15T20:48:17.257Z,27.76
2019-06-15T20:50:47.331Z,27.54
2019-06-15T20:53:17.318Z,27.41
2019-06-15T20:55:47.168Z,27.43
2019-06-15T20:58:17.322Z,27.39
2019-06-15T21:00:47.818Z,27.34
2019-06-15T21:03:18.257Z,27.31
2019-06-15T21:05:47.970Z,27.25
2019-06-15T21:08:17.773Z,27.23
2019-06-15T21:10:47.685Z,27.23
2019-06-15T21:13:17.273Z,27.12
2019-06-15T21:15:47.858Z,27.13
2019-06-15T21:18:17.680Z,27.05
2019-06-15T21:20:47.427Z,27.04
2019-06-15T21:23:17.380Z,26.96
2019-06-15T21:25:47.168Z,26.80
2019-06-15T21:28:17.179Z,26.78
2019-06-15T21:30:47.436Z,26.74
2019-06-15T21:33:16.916Z,26.67
2019-06-15T21:35:52.388Z,26.62
2019-06-15T21:38:17.689Z,26.62
2019-06-15T21:40:47.839Z,26.55
2019-06-15T21:43:17.624Z,26.49
2019-06-15T21:45:47.125Z,26.46
2019-06-15T21:48:16.776Z,26.45
2019-06-15T21:50:47.297Z,26.47
2019-06-15T21:53:17.243Z,26.49
2019-06-15T21:55:47.412Z,26.45
2019-06-15T21:58:17.039Z,26.50
2019-06-15T22:01:07.572Z,26.54
2019-06-15T22:03:37.431Z,26.58
2019-06-15T22:06:07.265Z,26.55
2019-06-15T22:08:37.176Z,26.56
2019-06-15T22:11:07.053Z,26.51
2019-06-15T22:13:37.474Z,26.50
2019-06-15T22:16:07.352Z,26.27
2019-06-15T22:18:36.743Z,26.36
2019-06-15T22:21:06.723Z,26.24
2019-06-15T22:23:36.578Z,26.29
2019-06-15T22:26:06.665Z,26.31
2019-06-15T22:28:36.555Z,26.28
2019-06-15T22:31:06.954Z,26.31
2019-06-15T22:33:36.615Z,26.27
2019-06-15T22:36:20.850Z,26.20
2019-06-15T22:38:38.059Z,26.24
2019-06-15T22:41:07.493Z,26.12
2019-06-15T22:43:37.402Z,26.21
2019-06-15T22:46:07.710Z,26.33
2019-06-15T22:48:37.516Z,26.07
2019-06-15T22:51:07.126Z,25.82
2019-06-15T22:53:36.944Z,25.58
2019-06-15T22:56:06.900Z,25.37
2019-06-15T22:58:36.435Z,25.27
2019-06-15T23:01:06.341Z,25.15
2019-06-15T23:03:35.758Z,25.06
2019-06-15T23:06:06.955Z,25.00
2019-06-15T23:08:36.541Z,24.98
2019-06-15T23:11:06.849Z,24.96
2019-06-15T23:13:37.024Z,24.87
2019-06-15T23:16:06.585Z,24.88
2019-06-15T23:18:35.984Z,24.81
2019-06-15T23:21:06.534Z,24.72
2019-06-15T23:23:36.413Z,24.69
2019-06-15T23:26:06.619Z,24.67
2019-06-15T23:28:36.344Z,24.61
2019-06-15T23:31:07.584Z,24.57
2019-06-15T23:33:37.539Z,24.57
2019-06-15T23:36:12.306Z,24.63
2019-06-15T23:38:41.711Z,24.64
2019-06-15T23:41:11.491Z,24.64
2019-06-15T23:43:41.155Z,24.61
2019-06-15T23:46:10.926Z,24.60
2019-06-15T23:48:40.430Z,24.70
2019-06-15T23:51:10.178Z,24.76
2019-06-15T23:53:39.900Z,24.81
2019-06-15T23:56:09.834Z,24.84
2019-06-15T23:58:40.848Z,24.86
